Ginga — JJ4054 — position and weather

sailwx.info

Track history (hours):
 
Tides and Currents Weather Stations Pressure Air Temp Water Temp Dewpoint Dewpoint Depression Visibility Wind Speed Wind Dir Waves Ship Positions

Ginga

Last reported at 2014-Jul-20 03:21 UTC. Time now 2014-Jul-22 23:41 UTC.
Position N 34°39' E 135°09'.

Length 28 m; draft 1.6 m.

Type: Other ship. MMSI: 431301704.

Date/timePositionNaut miles runAvg speedWind from/ knotsBaromVisibWave heightAir tempDewpointWater temp
2014-Jul-20 03:21N 34°39' E 135°09'6 7.3
2014-Jul-20 02:33N 34°35' E 135°04'5 3.8
2014-Jul-20 01:08N 34°36' E 134°58'4 7.3
2014-Jul-20 00:33N 34°36' E 135°03'6 6.2
2014-Jul-19 23:33N 34°39' E 135°10'2 0.1
2014-Jul-19 03:33N 34°38' E 135°07'4 4.5
2014-Jul-19 02:33N 34°37' E 135°02'2 1.9
2014-Jul-19 01:33N 34°37' E 135°04'1 0.2
2014-Jul-18 19:29N 34°38' E 135°03'2 2.3
2014-Jul-18 18:33N 34°36' E 135°04'3 3.1
2014-Jul-18 17:33N 34°34' E 135°07'0 0.3
2014-Jul-18 16:33N 34°34' E 135°07'3 3.0
2014-Jul-18 15:33N 34°31' E 135°07'1412.7
2014-Jul-18 14:29N 34°19' E 134°59'7 7.4
2014-Jul-18 13:29N 34°11' E 134°59'1415.1
2014-Jul-18 12:31N 34°26' E 135°02'1515.2
2014-Jul-18 11:33N 34°39' E 135°10'0 0.0
2014-Jul-17 19:31N 34°39' E 135°09'1010.0
2014-Jul-17 18:33N 34°37' E 134°58'8 8.3
2014-Jul-17 17:33N 34°35' E 135°07'6 0.6
2014-Jul-17 07:33N 34°37' E 135°14'9 9.3
2014-Jul-17 06:34N 34°33' E 135°24'4 4.4
2014-Jul-17 05:33N 34°33' E 135°19'10 9.4
2014-Jul-17 04:33N 34°39' E 135°09'0 0.0
2014-Jul-15 22:16N 34°39' E 135°09'810.5
2014-Jul-15 21:31N 34°38' E 135°00'5 4.9
2014-Jul-15 20:33N 34°35' E 135°05'5 5.3
2014-Jul-15 19:34N 34°39' E 135°10'2 0.1
2014-Jul-14 20:33N 34°38' E 135°08'5 4.7
2014-Jul-14 19:24N 34°37' E 135°01'5 6.2
2014-Jul-14 18:33N 34°35' E 135°07'4 4.2
2014-Jul-14 17:33N 34°39' E 135°09'0 0.0
2014-Jul-14 03:11N 34°39' E 135°09'6 9.0
2014-Jul-14 02:33N 34°35' E 135°04'5 4.6
2014-Jul-14 01:34N 34°38' E 135°00'8 7.7
2014-Jul-14 00:33N 34°39' E 135°09'0 0.0
2014-Jul-13 00:23N 34°39' E 135°09'910.2
2014-Jul-12 23:33N 34°38' E 134°59'4 4.3
2014-Jul-12 22:33N 34°36' E 135°04'2 0.6
2014-Jul-12 19:33N 34°37' E 135°03'2 1.9
2014-Jul-12 18:32N 34°36' E 135°04'6 5.9
2014-Jul-12 17:33N 34°39' E 135°10'0 0.0
2014-Jul-12 06:21N 34°39' E 135°09'1012.4
2014-Jul-12 05:33N 34°30' E 135°06'13 9.8
2014-Jul-12 04:17N 34°19' E 134°59'1216.0
2014-Jul-12 03:33N 34°27' E 135°08'1312.7
2014-Jul-12 02:32N 34°33' E 135°22'0 0.3
2014-Jul-12 01:33N 34°34' E 135°22'1211.8
2014-Jul-12 00:33N 34°39' E 135°09'3 0.6
2014-Jul-11 19:33N 34°37' E 135°06'3 2.6
2014-Jul-11 18:33N 34°36' E 135°03'5 5.2
2014-Jul-11 17:33N 34°37' E 135°10'8 0.4
2014-Jul-11 00:07N 34°33' E 135°18'5 8.8
2014-Jul-10 23:33N 34°30' E 135°13'12 4.0
2014-Jul-10 20:29N 34°23' E 135°01'1415.3
2014-Jul-10 19:33N 34°35' E 135°09'  
Track history (hours):
 
Tides and Currents Weather Stations Pressure Air Temp Water Temp Dewpoint Dewpoint Depression Visibility Wind Speed Wind Dir Waves Ship Positions

Ginga

Last reported at 2014-Jul-20 03:21 UTC. Time now 2014-Jul-22 23:41 UTC.
Position N 34°39' E 135°09'.

Length 28 m; draft 1.6 m.

Type: Other ship. MMSI: 431301704.

Date/timePositionNaut miles runAvg speedWind from/ knotsBaromVisibWave heightAir tempDewpointWater temp
2014-Jul-20 03:21N 34°39' E 135°09'6 7.3
2014-Jul-20 02:33N 34°35' E 135°04'5 3.8
2014-Jul-20 01:08N 34°36' E 134°58'4 7.3
2014-Jul-20 00:33N 34°36' E 135°03'6 6.2
2014-Jul-19 23:33N 34°39' E 135°10'2 0.1
2014-Jul-19 03:33N 34°38' E 135°07'4 4.5
2014-Jul-19 02:33N 34°37' E 135°02'2 1.9
2014-Jul-19 01:33N 34°37' E 135°04'1 0.2
2014-Jul-18 19:29N 34°38' E 135°03'2 2.3
2014-Jul-18 18:33N 34°36' E 135°04'3 3.1
2014-Jul-18 17:33N 34°34' E 135°07'0 0.3
2014-Jul-18 16:33N 34°34' E 135°07'3 3.0
2014-Jul-18 15:33N 34°31' E 135°07'1412.7
2014-Jul-18 14:29N 34°19' E 134°59'7 7.4
2014-Jul-18 13:29N 34°11' E 134°59'1415.1
2014-Jul-18 12:31N 34°26' E 135°02'1515.2
2014-Jul-18 11:33N 34°39' E 135°10'0 0.0
2014-Jul-17 19:31N 34°39' E 135°09'1010.0
2014-Jul-17 18:33N 34°37' E 134°58'8 8.3
2014-Jul-17 17:33N 34°35' E 135°07'6 0.6
2014-Jul-17 07:33N 34°37' E 135°14'9 9.3
2014-Jul-17 06:34N 34°33' E 135°24'4 4.4
2014-Jul-17 05:33N 34°33' E 135°19'10 9.4
2014-Jul-17 04:33N 34°39' E 135°09'0 0.0
2014-Jul-15 22:16N 34°39' E 135°09'810.5
2014-Jul-15 21:31N 34°38' E 135°00'5 4.9
2014-Jul-15 20:33N 34°35' E 135°05'5 5.3
2014-Jul-15 19:34N 34°39' E 135°10'2 0.1
2014-Jul-14 20:33N 34°38' E 135°08'5 4.7
2014-Jul-14 19:24N 34°37' E 135°01'5 6.2
2014-Jul-14 18:33N 34°35' E 135°07'4 4.2
2014-Jul-14 17:33N 34°39' E 135°09'0 0.0
2014-Jul-14 03:11N 34°39' E 135°09'6 9.0
2014-Jul-14 02:33N 34°35' E 135°04'5 4.6
2014-Jul-14 01:34N 34°38' E 135°00'8 7.7
2014-Jul-14 00:33N 34°39' E 135°09'0 0.0
2014-Jul-13 00:23N 34°39' E 135°09'910.2
2014-Jul-12 23:33N 34°38' E 134°59'4 4.3
2014-Jul-12 22:33N 34°36' E 135°04'2 0.6
2014-Jul-12 19:33N 34°37' E 135°03'2 1.9
2014-Jul-12 18:32N 34°36' E 135°04'6 5.9
2014-Jul-12 17:33N 34°39' E 135°10'0 0.0
2014-Jul-12 06:21N 34°39' E 135°09'1012.4
2014-Jul-12 05:33N 34°30' E 135°06'13 9.8
2014-Jul-12 04:17N 34°19' E 134°59'1216.0
2014-Jul-12 03:33N 34°27' E 135°08'1312.7
2014-Jul-12 02:32N 34°33' E 135°22'0 0.3
2014-Jul-12 01:33N 34°34' E 135°22'1211.8
2014-Jul-12 00:33N 34°39' E 135°09'3 0.6
2014-Jul-11 19:33N 34°37' E 135°06'3 2.6
2014-Jul-11 18:33N 34°36' E 135°03'5 5.2
2014-Jul-11 17:33N 34°37' E 135°10'8 0.4
2014-Jul-11 00:07N 34°33' E 135°18'5 8.8
2014-Jul-10 23:33N 34°30' E 135°13'12 4.0
2014-Jul-10 20:29N 34°23' E 135°01'1415.3
2014-Jul-10 19:33N 34°35' E 135°09'  

Dump ship's entire track history